< < Back
Terminal Aerodrome Forecast


Current Version              Previous Versions:   1  2  3  4  5  6  7  8  9  

Terminal Aerodrome Forecast

146
FTUS42 KILM 250600 CCA
TAFFLO
TAF COR
KFLO 250600Z 2506/2606 00000KT P6SM SKC
     FM250800 00000KT 6SM BR SKC
      TEMPO 2509/2511 4SM BR
     FM251300 29005KT P6SM SKC=

Latest METAR

871
SAUS70 KWBC 260258
MTRFLO
METAR KFLO 260253Z AUTO 26005KT 10SM CLR 12/08 A2995 RMK AO2 SLP140
T01170078 53000


USA.gov is the U.S. government's official web portal to all federal, state and local government web resources and services.